Portada
METAR-TAF:

METAR-TAF

Aeropuertos :

Decimomannu, Italia

latitud: 39-21N, longitud: 008-58E, altitud: 29 m

Observación

El informe se hizo hace 1 hora y 24 minutos, a las 05:55 UTC
Viento 2 kt del sureste
Temperatura 18°C
Humedad 83%
Presión 1008 hPa
Visibilidad 10 km o más
sin nubes por debajo de 1500 m y sin presencia de cumulonimbus.

METAR: LIED 070555Z 13002KT CAVOK 18/15 Q1008 RMK BKN FEW100 BKN200 VIS MIN 9999 WIND THR35 24001KT WIND THR17 /////KT BLU

Hora: 09:19 (07:19 UTC)

Pronóstico

El informe se hizo hace 2 horas y 19 minutos, a las 05:00 UTC
Pronóstico válido del 07 a las 06 UTC al 07 a las 15 UTC
Viento 5 kt con dirección variable
Visibilidad 10 km o más
sin nubes por debajo de 1500 m y sin presencia de cumulonimbus.
Evolucionando progresivamente
del 07 a las 10 UTC al 07 a las 12 UTC
Viento 12 kt del sur-sureste
Visibilidad 10 km o más

TAF: LIED 070500Z 0706/0715 VRB05KT CAVOK BECMG 0710/0712 15012KT 9999 SCT0040

Observaciones y pronósticos meteorológicos de más de 4000 aeropuertos (mensajes METAR y TAF).

Los puntos amarillos y rojos representan las estaciones disponibles.

Ponga el ratón en el punto deseado para ver el nombre de la estación.

Haga clic para ver las observaciones y los pronósticos meteorológicos.

Para cambiar el mapa : haga clic en los botones verdes con una cruz de color negro para hacer un zoom, en el botón verde con un guión para alejar o en las flechas verdes para mapas adyacentes.


METAR-TAF: